sensor_id;sensor_type;location;lat;lon;timestamp;pressure;altitude;pressure_sealevel;temperature;humidity
20023;BME280;10172;42.054;24.546;2023-08-30T00:00:54;97013.88;;;22.61;100.00
20023;BME280;10172;42.054;24.546;2023-08-30T00:03:19;97007.22;;;22.31;100.00
20023;BME280;10172;42.054;24.546;2023-08-30T00:05:45;97019.91;;;22.11;100.00
20023;BME280;10172;42.054;24.546;2023-08-30T00:08:11;97011.81;;;22.43;100.00
20023;BME280;10172;42.054;24.546;2023-08-30T00:10:38;97015.91;;;23.18;100.00
20023;BME280;10172;42.054;24.546;2023-08-30T00:13:04;97016.31;;;23.15;100.00
20023;BME280;10172;42.054;24.546;2023-08-30T00:15:30;97010.31;;;23.70;100.00
20023;BME280;10172;42.054;24.546;2023-08-30T00:17:55;97021.59;;;22.44;100.00
20023;BME280;10172;42.054;24.546;2023-08-30T00:20:21;97018.72;;;21.66;100.00
20023;BME280;10172;42.054;24.546;2023-08-30T00:22:47;97005.38;;;21.51;100.00
20023;BME280;10172;42.054;24.546;2023-08-30T00:25:16;97005.78;;;21.55;100.00
20023;BME280;10172;42.054;24.546;2023-08-30T00:27:41;97006.47;;;21.16;100.00
20023;BME280;10172;42.054;24.546;2023-08-30T00:30:08;97007.88;;;21.53;100.00
20023;BME280;10172;42.054;24.546;2023-08-30T00:32:34;97009.72;;;21.45;100.00
20023;BME280;10172;42.054;24.546;2023-08-30T00:35:00;96998.00;;;21.92;100.00
20023;BME280;10172;42.054;24.546;2023-08-30T00:37:26;97006.31;;;21.30;100.00
20023;BME280;10172;42.054;24.546;2023-08-30T00:39:51;96997.44;;;21.50;100.00
20023;BME280;10172;42.054;24.546;2023-08-30T00:42:16;96998.75;;;21.67;100.00
20023;BME280;10172;42.054;24.546;2023-08-30T00:44:42;97007.81;;;21.93;100.00
20023;BME280;10172;42.054;24.546;2023-08-30T00:47:07;96994.97;;;21.55;100.00
20023;BME280;10172;42.054;24.546;2023-08-30T00:49:33;96991.81;;;22.25;100.00
20023;BME280;10172;42.054;24.546;2023-08-30T00:52:02;96987.19;;;21.99;100.00
20023;BME280;10172;42.054;24.546;2023-08-30T00:54:27;96997.53;;;21.76;100.00
20023;BME280;10172;42.054;24.546;2023-08-30T00:56:54;97004.72;;;22.03;100.00
20023;BME280;10172;42.054;24.546;2023-08-30T00:59:19;96997.28;;;21.10;100.00
20023;BME280;10172;42.054;24.546;2023-08-30T01:01:45;96999.25;;;21.29;100.00
20023;BME280;10172;42.054;24.546;2023-08-30T01:04:11;96989.16;;;21.58;100.00
20023;BME280;10172;42.054;24.546;2023-08-30T01:06:36;97005.31;;;21.92;100.00
20023;BME280;10172;42.054;24.546;2023-08-30T01:09:03;96990.31;;;21.96;100.00
20023;BME280;10172;42.054;24.546;2023-08-30T01:14:19;96998.69;;;22.67;100.00
20023;BME280;10172;42.054;24.546;2023-08-30T01:16:46;97008.47;;;22.81;100.00
20023;BME280;10172;42.054;24.546;2023-08-30T01:20:07;97005.97;;;22.86;100.00
20023;BME280;10172;42.054;24.546;2023-08-30T01:23:09;97014.53;;;22.43;100.00
20023;BME280;10172;42.054;24.546;2023-08-30T01:26:17;97008.91;;;22.65;100.00
20023;BME280;10172;42.054;24.546;2023-08-30T01:28:44;97004.31;;;22.19;100.00
20023;BME280;10172;42.054;24.546;2023-08-30T01:31:12;97010.06;;;21.90;100.00
20023;BME280;10172;42.054;24.546;2023-08-30T01:33:39;97010.38;;;21.61;100.00
20023;BME280;10172;42.054;24.546;2023-08-30T01:36:05;97018.78;;;21.85;100.00
20023;BME280;10172;42.054;24.546;2023-08-30T01:38:32;97020.91;;;21.90;100.00
20023;BME280;10172;42.054;24.546;2023-08-30T01:40:59;97016.59;;;21.55;100.00
20023;BME280;10172;42.054;24.546;2023-08-30T01:43:29;97021.03;;;21.69;100.00
20023;BME280;10172;42.054;24.546;2023-08-30T01:45:55;97028.91;;;22.37;100.00
20023;BME280;10172;42.054;24.546;2023-08-30T01:48:22;97027.13;;;23.41;100.00
20023;BME280;10172;42.054;24.546;2023-08-30T01:50:49;97024.16;;;23.94;100.00
20023;BME280;10172;42.054;24.546;2023-08-30T01:53:15;97028.75;;;24.31;96.83
20023;BME280;10172;42.054;24.546;2023-08-30T01:55:42;97040.53;;;24.74;94.45
20023;BME280;10172;42.054;24.546;2023-08-30T01:58:08;97040.88;;;24.84;95.28
20023;BME280;10172;42.054;24.546;2023-08-30T02:00:35;97035.88;;;24.32;100.00
20023;BME280;10172;42.054;24.546;2023-08-30T02:03:10;97027.91;;;23.99;100.00
20023;BME280;10172;42.054;24.546;2023-08-30T02:05:41;97038.88;;;24.17;100.00
20023;BME280;10172;42.054;24.546;2023-08-30T02:08:16;97031.00;;;24.65;99.77
20023;BME280;10172;42.054;24.546;2023-08-30T02:10:48;97029.34;;;24.02;100.00
20023;BME280;10172;42.054;24.546;2023-08-30T02:13:17;97035.94;;;23.17;100.00
20023;BME280;10172;42.054;24.546;2023-08-30T02:15:47;97036.63;;;23.63;100.00
20023;BME280;10172;42.054;24.546;2023-08-30T02:18:14;97023.03;;;24.08;100.00
20023;BME280;10172;42.054;24.546;2023-08-30T02:20:39;97039.00;;;23.34;100.00
20023;BME280;10172;42.054;24.546;2023-08-30T02:23:05;97017.06;;;23.93;100.00
20023;BME280;10172;42.054;24.546;2023-08-30T02:25:30;97029.13;;;23.65;100.00
20023;BME280;10172;42.054;24.546;2023-08-30T02:27:56;97030.53;;;22.25;100.00
20023;BME280;10172;42.054;24.546;2023-08-30T02:30:21;97037.19;;;22.03;100.00
20023;BME280;10172;42.054;24.546;2023-08-30T02:32:47;97041.56;;;21.50;100.00
20023;BME280;10172;42.054;24.546;2023-08-30T02:35:12;97029.78;;;21.23;100.00
20023;BME280;10172;42.054;24.546;2023-08-30T02:37:38;97030.13;;;21.07;100.00
20023;BME280;10172;42.054;24.546;2023-08-30T02:40:05;97026.41;;;21.15;100.00
20023;BME280;10172;42.054;24.546;2023-08-30T02:42:31;97029.97;;;21.63;100.00
20023;BME280;10172;42.054;24.546;2023-08-30T02:44:56;97030.13;;;21.07;100.00
20023;BME280;10172;42.054;24.546;2023-08-30T02:47:22;97036.28;;;21.01;100.00
20023;BME280;10172;42.054;24.546;2023-08-30T02:49:47;97036.84;;;21.18;100.00
20023;BME280;10172;42.054;24.546;2023-08-30T02:52:13;97040.78;;;21.15;100.00
20023;BME280;10172;42.054;24.546;2023-08-30T02:54:38;97036.31;;;21.35;100.00
20023;BME280;10172;42.054;24.546;2023-08-30T02:57:04;97036.59;;;20.57;100.00
20023;BME280;10172;42.054;24.546;2023-08-30T02:59:29;97037.84;;;20.55;100.00
20023;BME280;10172;42.054;24.546;2023-08-30T03:01:55;97036.44;;;20.93;100.00
20023;BME280;10172;42.054;24.546;2023-08-30T03:04:20;97031.47;;;21.24;100.00
20023;BME280;10172;42.054;24.546;2023-08-30T03:06:46;97030.75;;;21.09;100.00
20023;BME280;10172;42.054;24.546;2023-08-30T03:09:11;97036.84;;;20.90;100.00
20023;BME280;10172;42.054;24.546;2023-08-30T03:11:37;97041.59;;;20.81;100.00
20023;BME280;10172;42.054;24.546;2023-08-30T03:14:02;97040.31;;;20.77;100.00
20023;BME280;10172;42.054;24.546;2023-08-30T03:16:28;97041.97;;;20.78;100.00
20023;BME280;10172;42.054;24.546;2023-08-30T03:18:54;97044.63;;;21.06;100.00
20023;BME280;10172;42.054;24.546;2023-08-30T03:21:19;97056.78;;;21.10;100.00
20023;BME280;10172;42.054;24.546;2023-08-30T03:23:45;97051.09;;;21.39;100.00
20023;BME280;10172;42.054;24.546;2023-08-30T03:26:11;97064.44;;;21.48;100.00
20023;BME280;10172;42.054;24.546;2023-08-30T03:28:38;97067.91;;;21.76;100.00
20023;BME280;10172;42.054;24.546;2023-08-30T03:31:17;97079.09;;;21.25;100.00
20023;BME280;10172;42.054;24.546;2023-08-30T03:33:43;97068.78;;;21.35;100.00
20023;BME280;10172;42.054;24.546;2023-08-30T03:36:14;97067.31;;;21.33;100.00
20023;BME280;10172;42.054;24.546;2023-08-30T03:38:40;97074.44;;;21.47;100.00
20023;BME280;10172;42.054;24.546;2023-08-30T03:41:06;97078.19;;;21.87;100.00
20023;BME280;10172;42.054;24.546;2023-08-30T03:43:32;97075.63;;;21.85;100.00
20023;BME280;10172;42.054;24.546;2023-08-30T03:45:59;97075.53;;;22.13;100.00
20023;BME280;10172;42.054;24.546;2023-08-30T03:48:25;97080.16;;;22.26;100.00
20023;BME280;10172;42.054;24.546;2023-08-30T03:50:51;97062.19;;;22.05;100.00
20023;BME280;10172;42.054;24.546;2023-08-30T03:53:16;97083.88;;;21.23;100.00
20023;BME280;10172;42.054;24.546;2023-08-30T03:55:41;97081.06;;;21.38;100.00
20023;BME280;10172;42.054;24.546;2023-08-30T03:58:07;97079.16;;;21.04;100.00
20023;BME280;10172;42.054;24.546;2023-08-30T04:00:36;97085.31;;;21.54;100.00
20023;BME280;10172;42.054;24.546;2023-08-30T04:03:02;97097.75;;;21.48;100.00
20023;BME280;10172;42.054;24.546;2023-08-30T04:05:32;97088.63;;;21.49;100.00
20023;BME280;10172;42.054;24.546;2023-08-30T04:07:58;97096.69;;;21.90;100.00
20023;BME280;10172;42.054;24.546;2023-08-30T04:10:23;97098.09;;;21.79;100.00
20023;BME280;10172;42.054;24.546;2023-08-30T04:12:49;97090.41;;;21.83;100.00
20023;BME280;10172;42.054;24.546;2023-08-30T04:15:14;97099.16;;;21.85;100.00
20023;BME280;10172;42.054;24.546;2023-08-30T04:17:40;97095.66;;;21.43;100.00
20023;BME280;10172;42.054;24.546;2023-08-30T04:20:06;97081.88;;;21.38;100.00
20023;BME280;10172;42.054;24.546;2023-08-30T04:22:32;97089.03;;;21.53;100.00
20023;BME280;10172;42.054;24.546;2023-08-30T04:24:59;97082.72;;;21.39;100.00
20023;BME280;10172;42.054;24.546;2023-08-30T04:27:25;97083.31;;;21.75;100.00
20023;BME280;10172;42.054;24.546;2023-08-30T04:29:52;97093.50;;;22.27;100.00
20023;BME280;10172;42.054;24.546;2023-08-30T04:32:17;97094.25;;;21.95;100.00
20023;BME280;10172;42.054;24.546;2023-08-30T04:34:43;97088.91;;;22.21;100.00
20023;BME280;10172;42.054;24.546;2023-08-30T04:37:08;97091.44;;;22.42;100.00
20023;BME280;10172;42.054;24.546;2023-08-30T04:39:34;97090.75;;;21.67;100.00
20023;BME280;10172;42.054;24.546;2023-08-30T04:41:59;97091.00;;;21.72;100.00
20023;BME280;10172;42.054;24.546;2023-08-30T04:44:25;97087.28;;;21.38;100.00
20023;BME280;10172;42.054;24.546;2023-08-30T04:46:53;97087.25;;;21.73;100.00
20023;BME280;10172;42.054;24.546;2023-08-30T04:49:19;97088.66;;;22.03;100.00
20023;BME280;10172;42.054;24.546;2023-08-30T04:51:45;97099.56;;;21.82;100.00
20023;BME280;10172;42.054;24.546;2023-08-30T04:54:10;97087.88;;;21.75;100.00
20023;BME280;10172;42.054;24.546;2023-08-30T04:56:35;97100.00;;;21.79;100.00
20023;BME280;10172;42.054;24.546;2023-08-30T04:59:01;97095.66;;;21.09;100.00
20023;BME280;10172;42.054;24.546;2023-08-30T05:01:30;97098.78;;;21.88;100.00
20023;BME280;10172;42.054;24.546;2023-08-30T05:03:55;97095.78;;;22.30;100.00
20023;BME280;10172;42.054;24.546;2023-08-30T05:06:21;97101.88;;;22.58;100.00
20023;BME280;10172;42.054;24.546;2023-08-30T05:08:46;97094.81;;;22.77;100.00
20023;BME280;10172;42.054;24.546;2023-08-30T05:11:12;97111.88;;;23.30;100.00
20023;BME280;10172;42.054;24.546;2023-08-30T05:13:37;97112.72;;;23.17;100.00
20023;BME280;10172;42.054;24.546;2023-08-30T05:16:03;97112.28;;;22.55;100.00
20023;BME280;10172;42.054;24.546;2023-08-30T05:18:28;97098.13;;;22.46;100.00
20023;BME280;10172;42.054;24.546;2023-08-30T05:20:54;97103.94;;;22.30;100.00
20023;BME280;10172;42.054;24.546;2023-08-30T05:23:19;97118.75;;;23.26;100.00
20023;BME280;10172;42.054;24.546;2023-08-30T05:25:45;97106.25;;;23.96;100.00
20023;BME280;10172;42.054;24.546;2023-08-30T05:28:12;97124.28;;;24.28;100.00
20023;BME280;10172;42.054;24.546;2023-08-30T05:30:41;97113.78;;;24.69;99.25
20023;BME280;10172;42.054;24.546;2023-08-30T05:33:06;97119.41;;;25.06;97.29
20023;BME280;10172;42.054;24.546;2023-08-30T05:35:32;97117.31;;;25.26;95.48
20023;BME280;10172;42.054;24.546;2023-08-30T05:37:57;97116.66;;;24.12;97.85
20023;BME280;10172;42.054;24.546;2023-08-30T05:40:22;97121.28;;;24.49;96.75
20023;BME280;10172;42.054;24.546;2023-08-30T05:42:48;97118.47;;;25.12;92.07
20023;BME280;10172;42.054;24.546;2023-08-30T05:45:15;97135.00;;;23.65;99.27
20023;BME280;10172;42.054;24.546;2023-08-30T05:47:41;97133.88;;;23.79;99.54
20023;BME280;10172;42.054;24.546;2023-08-30T05:50:06;97128.97;;;23.50;100.00
20023;BME280;10172;42.054;24.546;2023-08-30T05:52:32;97142.69;;;23.68;100.00
20023;BME280;10172;42.054;24.546;2023-08-30T05:54:58;97146.72;;;24.17;99.08
20023;BME280;10172;42.054;24.546;2023-08-30T05:57:23;97149.88;;;23.30;100.00
20023;BME280;10172;42.054;24.546;2023-08-30T05:59:50;97144.41;;;23.56;100.00
20023;BME280;10172;42.054;24.546;2023-08-30T06:02:16;97138.00;;;24.02;100.00
20023;BME280;10172;42.054;24.546;2023-08-30T06:04:41;97139.25;;;24.06;100.00
20023;BME280;10172;42.054;24.546;2023-08-30T06:07:07;97143.72;;;23.80;100.00
20023;BME280;10172;42.054;24.546;2023-08-30T06:09:33;97143.91;;;24.36;98.97
20023;BME280;10172;42.054;24.546;2023-08-30T06:11:58;97147.25;;;24.70;96.99
20023;BME280;10172;42.054;24.546;2023-08-30T06:14:24;97141.09;;;25.12;92.76
20023;BME280;10172;42.054;24.546;2023-08-30T06:16:49;97149.47;;;25.11;93.14
20023;BME280;10172;42.054;24.546;2023-08-30T06:19:15;97148.25;;;25.07;94.55
20023;BME280;10172;42.054;24.546;2023-08-30T06:21:40;97153.38;;;24.96;96.68
20023;BME280;10172;42.054;24.546;2023-08-30T06:24:06;97151.44;;;24.66;99.85
20023;BME280;10172;42.054;24.546;2023-08-30T06:26:32;97155.75;;;24.49;100.00
20023;BME280;10172;42.054;24.546;2023-08-30T06:28:58;97159.81;;;24.71;100.00
20023;BME280;10172;42.054;24.546;2023-08-30T06:31:23;97149.19;;;24.94;100.00
20023;BME280;10172;42.054;24.546;2023-08-30T06:33:49;97153.53;;;25.51;97.33
20023;BME280;10172;42.054;24.546;2023-08-30T06:36:16;97165.28;;;24.64;100.00
20023;BME280;10172;42.054;24.546;2023-08-30T06:38:43;97156.63;;;24.80;100.00
20023;BME280;10172;42.054;24.546;2023-08-30T06:41:08;97165.25;;;25.51;98.87
20023;BME280;10172;42.054;24.546;2023-08-30T06:43:33;97170.63;;;25.58;98.09
20023;BME280;10172;42.054;24.546;2023-08-30T06:45:59;97173.97;;;24.79;100.00
20023;BME280;10172;42.054;24.546;2023-08-30T06:48:25;97170.91;;;25.50;100.00
20023;BME280;10172;42.054;24.546;2023-08-30T06:50:50;97171.28;;;25.78;98.48
20023;BME280;10172;42.054;24.546;2023-08-30T06:53:15;97171.72;;;25.93;96.65
20023;BME280;10172;42.054;24.546;2023-08-30T06:55:41;97185.31;;;26.48;93.15
20023;BME280;10172;42.054;24.546;2023-08-30T06:58:06;97175.78;;;26.57;91.27
20023;BME280;10172;42.054;24.546;2023-08-30T07:00:32;97187.03;;;26.90;88.99
20023;BME280;10172;42.054;24.546;2023-08-30T07:02:57;97186.41;;;26.29;91.42
20023;BME280;10172;42.054;24.546;2023-08-30T07:05:23;97191.47;;;26.43;92.28
20023;BME280;10172;42.054;24.546;2023-08-30T07:07:49;97168.81;;;26.43;91.09
20023;BME280;10172;42.054;24.546;2023-08-30T07:10:14;97184.22;;;26.67;90.61
20023;BME280;10172;42.054;24.546;2023-08-30T07:12:40;97180.97;;;26.58;88.80
20023;BME280;10172;42.054;24.546;2023-08-30T07:15:06;97175.72;;;26.09;93.93
20023;BME280;10172;42.054;24.546;2023-08-30T07:17:31;97175.63;;;26.52;91.02
20023;BME280;10172;42.054;24.546;2023-08-30T07:19:57;97184.03;;;27.21;84.80
20023;BME280;10172;42.054;24.546;2023-08-30T07:22:22;97190.13;;;26.34;90.70
20023;BME280;10172;42.054;24.546;2023-08-30T07:24:47;97191.38;;;25.95;93.25
20023;BME280;10172;42.054;24.546;2023-08-30T07:27:13;97186.09;;;25.82;94.67
20023;BME280;10172;42.054;24.546;2023-08-30T07:29:38;97185.97;;;26.32;93.24
20023;BME280;10172;42.054;24.546;2023-08-30T07:32:07;97187.41;;;26.94;88.62
20023;BME280;10172;42.054;24.546;2023-08-30T07:34:33;97192.81;;;25.80;95.95
20023;BME280;10172;42.054;24.546;2023-08-30T07:36:59;97191.69;;;26.42;93.07
20023;BME280;10172;42.054;24.546;2023-08-30T07:39:24;97196.44;;;25.74;95.82
20023;BME280;10172;42.054;24.546;2023-08-30T07:41:50;97185.63;;;25.18;98.80
20023;BME280;10172;42.054;24.546;2023-08-30T07:44:15;97190.75;;;26.18;93.94
20023;BME280;10172;42.054;24.546;2023-08-30T07:46:41;97186.13;;;26.19;92.67
20023;BME280;10172;42.054;24.546;2023-08-30T07:49:07;97195.44;;;26.29;90.73
20023;BME280;10172;42.054;24.546;2023-08-30T07:51:32;97196.06;;;25.70;95.44
20023;BME280;10172;42.054;24.546;2023-08-30T07:53:58;97191.41;;;25.52;98.26
20023;BME280;10172;42.054;24.546;2023-08-30T07:56:23;97195.78;;;26.51;90.89
20023;BME280;10172;42.054;24.546;2023-08-30T07:58:49;97182.09;;;26.99;86.77
20023;BME280;10172;42.054;24.546;2023-08-30T08:01:14;97181.94;;;26.64;89.36
20023;BME280;10172;42.054;24.546;2023-08-30T08:03:40;97181.75;;;26.65;90.63
20023;BME280;10172;42.054;24.546;2023-08-30T08:06:08;97181.47;;;27.50;85.39
20023;BME280;10172;42.054;24.546;2023-08-30T08:08:33;97178.38;;;28.16;81.38
20023;BME280;10172;42.054;24.546;2023-08-30T08:10:59;97170.88;;;29.08;74.88
20023;BME280;10172;42.054;24.546;2023-08-30T08:13:25;97172.53;;;27.19;84.43
20023;BME280;10172;42.054;24.546;2023-08-30T08:15:51;97180.84;;;27.24;84.18
20023;BME280;10172;42.054;24.546;2023-08-30T08:18:16;97182.22;;;26.74;87.46
20023;BME280;10172;42.054;24.546;2023-08-30T08:20:42;97173.81;;;26.76;88.80
20023;BME280;10172;42.054;24.546;2023-08-30T08:23:08;97179.22;;;26.34;91.19
20023;BME280;10172;42.054;24.546;2023-08-30T08:25:34;97177.69;;;26.86;88.26
20023;BME280;10172;42.054;24.546;2023-08-30T08:27:59;97167.41;;;26.70;89.04
20023;BME280;10172;42.054;24.546;2023-08-30T08:30:25;97164.50;;;27.48;84.55
20023;BME280;10172;42.054;24.546;2023-08-30T08:32:50;97160.91;;;27.36;84.35
20023;BME280;10172;42.054;24.546;2023-08-30T08:35:16;97159.00;;;27.24;84.88
20023;BME280;10172;42.054;24.546;2023-08-30T08:37:41;97154.06;;;28.31;79.28
20023;BME280;10172;42.054;24.546;2023-08-30T08:40:07;97157.28;;;29.13;74.62
20023;BME280;10172;42.054;24.546;2023-08-30T08:42:36;97153.19;;;27.90;80.30
20023;BME280;10172;42.054;24.546;2023-08-30T08:45:02;97152.69;;;28.57;77.91
20023;BME280;10172;42.054;24.546;2023-08-30T08:47:29;97149.34;;;28.83;76.89
20023;BME280;10172;42.054;24.546;2023-08-30T08:49:55;97150.97;;;29.79;70.64
20023;BME280;10172;42.054;24.546;2023-08-30T08:52:21;97153.28;;;29.87;69.35
20023;BME280;10172;42.054;24.546;2023-08-30T08:54:47;97154.31;;;29.14;72.92
20023;BME280;10172;42.054;24.546;2023-08-30T08:57:13;97140.56;;;28.13;77.89
20023;BME280;10172;42.054;24.546;2023-08-30T08:59:39;97146.19;;;27.83;79.03
20023;BME280;10172;42.054;24.546;2023-08-30T09:02:05;97144.06;;;28.93;74.67
20023;BME280;10172;42.054;24.546;2023-08-30T09:04:31;97146.28;;;29.96;69.37
20023;BME280;10172;42.054;24.546;2023-08-30T09:06:58;97130.47;;;29.64;68.75
20023;BME280;10172;42.054;24.546;2023-08-30T09:09:25;97132.31;;;29.42;72.06
20023;BME280;10172;42.054;24.546;2023-08-30T09:11:51;97136.31;;;28.05;78.67
20023;BME280;10172;42.054;24.546;2023-08-30T09:14:17;97136.25;;;28.85;75.78
20023;BME280;10172;42.054;24.546;2023-08-30T09:16:43;97134.50;;;28.95;74.23
20023;BME280;10172;42.054;24.546;2023-08-30T09:19:08;97130.88;;;29.90;69.41
20023;BME280;10172;42.054;24.546;2023-08-30T09:21:35;97109.16;;;29.17;71.59
20023;BME280;10172;42.054;24.546;2023-08-30T09:24:05;97109.19;;;30.10;66.51
20023;BME280;10172;42.054;24.546;2023-08-30T09:26:32;97114.31;;;29.13;71.48
20023;BME280;10172;42.054;24.546;2023-08-30T09:29:06;97112.88;;;30.42;65.86
20023;BME280;10172;42.054;24.546;2023-08-30T09:31:35;97103.53;;;30.38;66.10
20023;BME280;10172;42.054;24.546;2023-08-30T09:34:02;97099.44;;;31.31;61.69
20023;BME280;10172;42.054;24.546;2023-08-30T09:36:39;97094.94;;;31.15;60.13
20023;BME280;10172;42.054;24.546;2023-08-30T09:39:09;97096.53;;;31.84;57.09
20023;BME280;10172;42.054;24.546;2023-08-30T09:41:41;97098.34;;;31.27;60.55
20023;BME280;10172;42.054;24.546;2023-08-30T09:44:09;97099.59;;;30.88;62.16
20023;BME280;10172;42.054;24.546;2023-08-30T09:46:42;97090.72;;;31.02;59.99
20023;BME280;10172;42.054;24.546;2023-08-30T09:49:09;97093.59;;;32.01;55.34
20023;BME280;10172;42.054;24.546;2023-08-30T09:51:35;97088.88;;;32.59;52.66
20023;BME280;10172;42.054;24.546;2023-08-30T09:54:04;97089.84;;;31.65;55.79
20023;BME280;10172;42.054;24.546;2023-08-30T09:56:31;97092.56;;;31.60;56.70
20023;BME280;10172;42.054;24.546;2023-08-30T09:58:58;97089.72;;;32.64;53.55
20023;BME280;10172;42.054;24.546;2023-08-30T10:01:28;97089.03;;;32.27;54.34
20023;BME280;10172;42.054;24.546;2023-08-30T10:03:55;97080.97;;;33.33;51.45
20023;BME280;10172;42.054;24.546;2023-08-30T10:06:24;97073.19;;;32.59;52.72
20023;BME280;10172;42.054;24.546;2023-08-30T10:08:51;97083.97;;;32.86;52.10
20023;BME280;10172;42.054;24.546;2023-08-30T10:11:19;97077.34;;;33.02;49.25
20023;BME280;10172;42.054;24.546;2023-08-30T10:13:47;97071.31;;;33.35;49.29
20023;BME280;10172;42.054;24.546;2023-08-30T10:16:19;97085.94;;;33.41;49.29
20023;BME280;10172;42.054;24.546;2023-08-30T10:18:50;97072.06;;;33.86;47.64
20023;BME280;10172;42.054;24.546;2023-08-30T10:21:18;97071.28;;;33.55;46.60
20023;BME280;10172;42.054;24.546;2023-08-30T10:23:45;97068.19;;;33.87;46.18
20023;BME280;10172;42.054;24.546;2023-08-30T10:26:15;97070.44;;;33.75;43.36
20023;BME280;10172;42.054;24.546;2023-08-30T10:28:41;97059.50;;;33.20;44.58
20023;BME280;10172;42.054;24.546;2023-08-30T10:31:07;97053.41;;;33.38;45.28
20023;BME280;10172;42.054;24.546;2023-08-30T10:33:49;97056.94;;;33.53;46.82
20023;BME280;10172;42.054;24.546;2023-08-30T10:36:21;97057.78;;;33.54;47.84
20023;BME280;10172;42.054;24.546;2023-08-30T10:38:54;97057.75;;;33.69;47.76
20023;BME280;10172;42.054;24.546;2023-08-30T10:41:25;97054.47;;;33.52;48.89
20023;BME280;10172;42.054;24.546;2023-08-30T10:43:55;97044.31;;;33.37;48.86
20023;BME280;10172;42.054;24.546;2023-08-30T10:46:31;97045.22;;;34.07;47.12
20023;BME280;10172;42.054;24.546;2023-08-30T10:49:18;97043.03;;;34.09;46.32
20023;BME280;10172;42.054;24.546;2023-08-30T10:51:43;97040.81;;;34.06;45.99
20023;BME280;10172;42.054;24.546;2023-08-30T10:54:18;97042.94;;;32.94;49.68
20023;BME280;10172;42.054;24.546;2023-08-30T10:56:57;97040.72;;;32.66;51.89
20023;BME280;10172;42.054;24.546;2023-08-30T10:59:26;97038.44;;;32.28;50.94
20023;BME280;10172;42.054;24.546;2023-08-30T11:01:52;97044.41;;;32.15;54.22
20023;BME280;10172;42.054;24.546;2023-08-30T11:04:18;97049.22;;;30.99;56.86
20023;BME280;10172;42.054;24.546;2023-08-30T11:06:45;97046.94;;;30.91;61.22
20023;BME280;10172;42.054;24.546;2023-08-30T11:09:13;97040.75;;;31.99;56.41
20023;BME280;10172;42.054;24.546;2023-08-30T11:11:40;97028.88;;;31.78;56.05
20023;BME280;10172;42.054;24.546;2023-08-30T11:14:08;97029.16;;;30.66;61.41
20023;BME280;10172;42.054;24.546;2023-08-30T11:16:38;97030.13;;;32.13;56.29
20023;BME280;10172;42.054;24.546;2023-08-30T11:19:04;97024.78;;;33.19;51.60
20023;BME280;10172;42.054;24.546;2023-08-30T11:21:31;97021.75;;;33.25;50.77
20023;BME280;10172;42.054;24.546;2023-08-30T11:23:57;97028.25;;;31.66;54.84
20023;BME280;10172;42.054;24.546;2023-08-30T11:26:23;97029.94;;;31.72;56.20
20023;BME280;10172;42.054;24.546;2023-08-30T11:28:48;97027.84;;;32.00;53.66
20023;BME280;10172;42.054;24.546;2023-08-30T11:31:20;97046.09;;;32.16;52.52
20023;BME280;10172;42.054;24.546;2023-08-30T11:33:54;97028.16;;;31.46;56.85
20023;BME280;10172;42.054;24.546;2023-08-30T11:36:31;97017.56;;;32.52;52.44
20023;BME280;10172;42.054;24.546;2023-08-30T11:38:57;97008.44;;;33.47;48.40
20023;BME280;10172;42.054;24.546;2023-08-30T11:41:26;96996.66;;;33.01;50.18
20023;BME280;10172;42.054;24.546;2023-08-30T11:43:52;96995.84;;;33.16;49.66
20023;BME280;10172;42.054;24.546;2023-08-30T11:46:18;97006.81;;;34.20;46.89
20023;BME280;10172;42.054;24.546;2023-08-30T11:48:45;97004.47;;;34.43;45.68
20023;BME280;10172;42.054;24.546;2023-08-30T11:51:11;96998.63;;;34.00;46.33
20023;BME280;10172;42.054;24.546;2023-08-30T11:53:38;97007.41;;;32.93;48.42
20023;BME280;10172;42.054;24.546;2023-08-30T11:56:05;96991.41;;;33.35;48.78
20023;BME280;10172;42.054;24.546;2023-08-30T11:58:35;96990.63;;;32.79;49.79
20023;BME280;10172;42.054;24.546;2023-08-30T12:01:04;96992.34;;;31.93;53.30
20023;BME280;10172;42.054;24.546;2023-08-30T12:03:30;96986.75;;;32.90;50.03
20023;BME280;10172;42.054;24.546;2023-08-30T12:05:57;96987.78;;;32.24;51.74
20023;BME280;10172;42.054;24.546;2023-08-30T12:08:26;96976.66;;;33.80;47.63
20023;BME280;10172;42.054;24.546;2023-08-30T12:10:52;96974.66;;;33.91;45.84
20023;BME280;10172;42.054;24.546;2023-08-30T12:15:51;96972.97;;;34.88;44.57
20023;BME280;10172;42.054;24.546;2023-08-30T12:18:16;96966.75;;;34.67;43.84
20023;BME280;10172;42.054;24.546;2023-08-30T12:20:52;96956.50;;;35.06;43.45
20023;BME280;10172;42.054;24.546;2023-08-30T12:23:22;96966.38;;;35.12;42.68
20023;BME280;10172;42.054;24.546;2023-08-30T12:26:02;96966.28;;;35.46;41.81
20023;BME280;10172;42.054;24.546;2023-08-30T12:28:32;96974.59;;;35.17;41.66
20023;BME280;10172;42.054;24.546;2023-08-30T12:30:59;96965.47;;;34.10;43.92
20023;BME280;10172;42.054;24.546;2023-08-30T12:33:24;96951.13;;;34.52;43.12
20023;BME280;10172;42.054;24.546;2023-08-30T12:35:54;96961.06;;;34.87;42.81
20023;BME280;10172;42.054;24.546;2023-08-30T12:38:21;96950.97;;;35.06;42.76
20023;BME280;10172;42.054;24.546;2023-08-30T12:40:47;96941.97;;;34.62;43.17
20023;BME280;10172;42.054;24.546;2023-08-30T12:43:15;96954.94;;;34.95;42.73
20023;BME280;10172;42.054;24.546;2023-08-30T12:45:41;96950.25;;;34.91;42.81
20023;BME280;10172;42.054;24.546;2023-08-30T12:48:08;96945.19;;;35.03;41.89
20023;BME280;10172;42.054;24.546;2023-08-30T12:50:35;96937.91;;;34.05;44.17